sensor_id;sensor_type;location;lat;lon;timestamp;P1;durP1;ratioP1;P2;durP2;ratioP2
41927;SDS011;27616;51.420;6.788;2022-12-10T00:00:20;78.30;;;28.87;;
41927;SDS011;27616;51.420;6.788;2022-12-10T00:02:45;69.30;;;27.13;;
41927;SDS011;27616;51.420;6.788;2022-12-10T00:05:11;76.57;;;28.97;;
41927;SDS011;27616;51.420;6.788;2022-12-10T00:07:37;72.80;;;28.13;;
41927;SDS011;27616;51.420;6.788;2022-12-10T00:10:03;69.67;;;29.13;;
41927;SDS011;27616;51.420;6.788;2022-12-10T00:12:29;75.83;;;28.93;;
41927;SDS011;27616;51.420;6.788;2022-12-10T00:14:54;71.17;;;28.37;;
41927;SDS011;27616;51.420;6.788;2022-12-10T00:17:20;75.90;;;29.70;;
41927;SDS011;27616;51.420;6.788;2022-12-10T00:19:46;75.67;;;29.63;;
41927;SDS011;27616;51.420;6.788;2022-12-10T00:22:11;76.73;;;28.93;;
41927;SDS011;27616;51.420;6.788;2022-12-10T00:24:37;71.47;;;28.23;;
41927;SDS011;27616;51.420;6.788;2022-12-10T00:27:03;73.80;;;27.63;;
41927;SDS011;27616;51.420;6.788;2022-12-10T00:29:28;79.60;;;29.37;;
41927;SDS011;27616;51.420;6.788;2022-12-10T00:31:54;82.77;;;30.03;;
41927;SDS011;27616;51.420;6.788;2022-12-10T00:34:20;75.30;;;29.07;;
41927;SDS011;27616;51.420;6.788;2022-12-10T00:36:46;81.33;;;30.20;;
41927;SDS011;27616;51.420;6.788;2022-12-10T00:41:43;79.37;;;30.13;;
41927;SDS011;27616;51.420;6.788;2022-12-10T00:44:09;81.13;;;29.77;;
41927;SDS011;27616;51.420;6.788;2022-12-10T00:46:34;79.83;;;29.67;;
41927;SDS011;27616;51.420;6.788;2022-12-10T00:49:00;82.80;;;30.03;;
41927;SDS011;27616;51.420;6.788;2022-12-10T00:51:27;84.17;;;30.37;;
41927;SDS011;27616;51.420;6.788;2022-12-10T00:53:54;79.10;;;30.93;;
41927;SDS011;27616;51.420;6.788;2022-12-10T00:56:24;80.32;;;31.55;;
41927;SDS011;27616;51.420;6.788;2022-12-10T00:58:54;75.17;;;29.27;;
41927;SDS011;27616;51.420;6.788;2022-12-10T01:01:22;88.50;;;32.53;;
41927;SDS011;27616;51.420;6.788;2022-12-10T01:03:54;85.53;;;33.03;;
41927;SDS011;27616;51.420;6.788;2022-12-10T01:06:26;89.33;;;32.07;;
41927;SDS011;27616;51.420;6.788;2022-12-10T01:08:54;86.70;;;30.75;;
41927;SDS011;27616;51.420;6.788;2022-12-10T01:11:23;90.25;;;32.78;;
41927;SDS011;27616;51.420;6.788;2022-12-10T01:13:51;86.82;;;31.52;;
41927;SDS011;27616;51.420;6.788;2022-12-10T01:16:18;91.93;;;32.00;;
41927;SDS011;27616;51.420;6.788;2022-12-10T01:18:45;85.83;;;31.17;;
41927;SDS011;27616;51.420;6.788;2022-12-10T01:21:12;82.63;;;30.97;;
41927;SDS011;27616;51.420;6.788;2022-12-10T01:23:42;82.80;;;31.20;;
41927;SDS011;27616;51.420;6.788;2022-12-10T01:26:10;86.43;;;30.77;;
41927;SDS011;27616;51.420;6.788;2022-12-10T01:28:38;85.55;;;30.75;;
41927;SDS011;27616;51.420;6.788;2022-12-10T01:31:07;82.70;;;30.00;;
41927;SDS011;27616;51.420;6.788;2022-12-10T01:33:45;80.53;;;30.15;;
41927;SDS011;27616;51.420;6.788;2022-12-10T01:36:12;95.33;;;32.90;;
41927;SDS011;27616;51.420;6.788;2022-12-10T01:38:42;85.77;;;30.97;;
41927;SDS011;27616;51.420;6.788;2022-12-10T01:41:13;94.17;;;32.67;;
41927;SDS011;27616;51.420;6.788;2022-12-10T01:46:34;83.67;;;29.43;;
41927;SDS011;27616;51.420;6.788;2022-12-10T01:49:05;87.23;;;32.03;;
41927;SDS011;27616;51.420;6.788;2022-12-10T01:51:34;84.20;;;30.77;;
41927;SDS011;27616;51.420;6.788;2022-12-10T01:54:03;90.93;;;29.52;;
41927;SDS011;27616;51.420;6.788;2022-12-10T01:56:30;88.07;;;32.03;;
41927;SDS011;27616;51.420;6.788;2022-12-10T01:58:58;84.03;;;29.50;;
41927;SDS011;27616;51.420;6.788;2022-12-10T02:01:28;84.27;;;30.33;;
41927;SDS011;27616;51.420;6.788;2022-12-10T02:04:16;87.10;;;29.83;;
41927;SDS011;27616;51.420;6.788;2022-12-10T02:07:17;78.70;;;29.20;;
41927;SDS011;27616;51.420;6.788;2022-12-10T02:12:43;88.67;;;30.07;;
41927;SDS011;27616;51.420;6.788;2022-12-10T02:15:33;77.33;;;29.33;;
41927;SDS011;27616;51.420;6.788;2022-12-10T02:18:10;74.63;;;28.87;;
41927;SDS011;27616;51.420;6.788;2022-12-10T02:20:43;76.73;;;28.93;;
41927;SDS011;27616;51.420;6.788;2022-12-10T02:23:18;85.43;;;30.10;;
41927;SDS011;27616;51.420;6.788;2022-12-10T02:25:56;80.53;;;28.60;;
41927;SDS011;27616;51.420;6.788;2022-12-10T02:28:31;80.55;;;29.67;;
41927;SDS011;27616;51.420;6.788;2022-12-10T02:31:18;88.47;;;31.27;;
41927;SDS011;27616;51.420;6.788;2022-12-10T02:33:51;79.10;;;28.63;;
41927;SDS011;27616;51.420;6.788;2022-12-10T02:36:25;81.80;;;29.13;;
41927;SDS011;27616;51.420;6.788;2022-12-10T02:38:55;88.67;;;30.40;;
41927;SDS011;27616;51.420;6.788;2022-12-10T02:41:29;85.85;;;30.55;;
41927;SDS011;27616;51.420;6.788;2022-12-10T02:44:02;86.47;;;30.93;;
41927;SDS011;27616;51.420;6.788;2022-12-10T02:46:31;95.97;;;31.67;;
41927;SDS011;27616;51.420;6.788;2022-12-10T02:49:02;89.70;;;32.40;;
41927;SDS011;27616;51.420;6.788;2022-12-10T02:51:32;102.13;;;32.27;;
41927;SDS011;27616;51.420;6.788;2022-12-10T02:53:58;108.10;;;35.13;;
41927;SDS011;27616;51.420;6.788;2022-12-10T02:56:40;104.03;;;34.77;;
41927;SDS011;27616;51.420;6.788;2022-12-10T03:05:23;199.07;;;39.33;;
41927;SDS011;27616;51.420;6.788;2022-12-10T03:08:02;167.60;;;39.23;;
41927;SDS011;27616;51.420;6.788;2022-12-10T03:13:06;347.47;;;48.00;;
41927;SDS011;27616;51.420;6.788;2022-12-10T03:15:35;354.33;;;45.90;;
41927;SDS011;27616;51.420;6.788;2022-12-10T03:18:04;197.77;;;41.80;;
41927;SDS011;27616;51.420;6.788;2022-12-10T03:20:33;149.77;;;39.80;;
41927;SDS011;27616;51.420;6.788;2022-12-10T03:23:02;145.37;;;39.00;;
41927;SDS011;27616;51.420;6.788;2022-12-10T03:25:30;165.70;;;42.67;;
41927;SDS011;27616;51.420;6.788;2022-12-10T03:27:58;164.90;;;42.80;;
41927;SDS011;27616;51.420;6.788;2022-12-10T03:30:25;158.53;;;41.80;;
41927;SDS011;27616;51.420;6.788;2022-12-10T03:32:51;296.43;;;45.83;;
41927;SDS011;27616;51.420;6.788;2022-12-10T03:35:19;224.43;;;43.90;;
41927;SDS011;27616;51.420;6.788;2022-12-10T03:37:47;145.15;;;40.42;;
41927;SDS011;27616;51.420;6.788;2022-12-10T03:40:14;156.57;;;40.87;;
41927;SDS011;27616;51.420;6.788;2022-12-10T03:42:45;218.87;;;45.90;;
41927;SDS011;27616;51.420;6.788;2022-12-10T03:45:10;228.50;;;44.67;;
41927;SDS011;27616;51.420;6.788;2022-12-10T03:47:36;176.63;;;42.87;;
41927;SDS011;27616;51.420;6.788;2022-12-10T03:50:02;168.70;;;44.13;;
41927;SDS011;27616;51.420;6.788;2022-12-10T03:52:28;168.67;;;40.40;;
41927;SDS011;27616;51.420;6.788;2022-12-10T03:54:54;151.67;;;40.37;;
41927;SDS011;27616;51.420;6.788;2022-12-10T03:57:20;155.23;;;41.90;;
41927;SDS011;27616;51.420;6.788;2022-12-10T03:59:45;145.13;;;41.27;;
41927;SDS011;27616;51.420;6.788;2022-12-10T04:02:11;138.83;;;40.37;;
41927;SDS011;27616;51.420;6.788;2022-12-10T04:04:37;131.83;;;39.97;;
41927;SDS011;27616;51.420;6.788;2022-12-10T04:07:02;139.43;;;40.07;;
41927;SDS011;27616;51.420;6.788;2022-12-10T04:09:28;142.20;;;39.70;;
41927;SDS011;27616;51.420;6.788;2022-12-10T04:11:57;139.40;;;40.00;;
41927;SDS011;27616;51.420;6.788;2022-12-10T04:14:24;136.25;;;40.92;;
41927;SDS011;27616;51.420;6.788;2022-12-10T04:17:08;126.90;;;39.03;;
41927;SDS011;27616;51.420;6.788;2022-12-10T04:19:34;130.27;;;39.63;;
41927;SDS011;27616;51.420;6.788;2022-12-10T04:22:00;121.83;;;38.27;;
41927;SDS011;27616;51.420;6.788;2022-12-10T04:24:44;123.47;;;37.43;;
41927;SDS011;27616;51.420;6.788;2022-12-10T04:27:30;123.70;;;38.23;;
41927;SDS011;27616;51.420;6.788;2022-12-10T04:29:59;116.03;;;37.00;;
41927;SDS011;27616;51.420;6.788;2022-12-10T04:32:26;121.77;;;37.47;;
41927;SDS011;27616;51.420;6.788;2022-12-10T04:34:53;120.53;;;38.97;;
41927;SDS011;27616;51.420;6.788;2022-12-10T04:37:19;118.93;;;37.77;;
41927;SDS011;27616;51.420;6.788;2022-12-10T04:39:46;141.77;;;37.60;;
41927;SDS011;27616;51.420;6.788;2022-12-10T04:42:13;117.00;;;38.10;;
41927;SDS011;27616;51.420;6.788;2022-12-10T04:44:39;129.47;;;38.47;;
41927;SDS011;27616;51.420;6.788;2022-12-10T04:47:05;135.00;;;39.70;;
41927;SDS011;27616;51.420;6.788;2022-12-10T04:49:32;142.83;;;39.03;;
41927;SDS011;27616;51.420;6.788;2022-12-10T04:51:58;158.53;;;40.23;;
41927;SDS011;27616;51.420;6.788;2022-12-10T04:54:24;146.07;;;39.60;;
41927;SDS011;27616;51.420;6.788;2022-12-10T04:56:50;142.37;;;39.77;;
41927;SDS011;27616;51.420;6.788;2022-12-10T04:59:16;143.30;;;40.73;;
41927;SDS011;27616;51.420;6.788;2022-12-10T05:01:41;151.27;;;41.50;;
41927;SDS011;27616;51.420;6.788;2022-12-10T05:04:09;134.33;;;39.27;;
41927;SDS011;27616;51.420;6.788;2022-12-10T05:06:36;114.88;;;37.38;;
41927;SDS011;27616;51.420;6.788;2022-12-10T05:09:02;108.77;;;36.57;;
41927;SDS011;27616;51.420;6.788;2022-12-10T05:11:29;98.57;;;33.30;;
41927;SDS011;27616;51.420;6.788;2022-12-10T05:13:56;94.03;;;32.63;;
41927;SDS011;27616;51.420;6.788;2022-12-10T05:16:22;95.77;;;33.93;;
41927;SDS011;27616;51.420;6.788;2022-12-10T05:18:50;97.67;;;33.17;;
41927;SDS011;27616;51.420;6.788;2022-12-10T05:21:18;136.97;;;33.33;;
41927;SDS011;27616;51.420;6.788;2022-12-10T05:23:46;92.38;;;29.55;;
41927;SDS011;27616;51.420;6.788;2022-12-10T05:28:46;84.50;;;31.80;;
41927;SDS011;27616;51.420;6.788;2022-12-10T05:33:46;90.17;;;31.20;;
41927;SDS011;27616;51.420;6.788;2022-12-10T05:36:13;93.60;;;33.37;;
41927;SDS011;27616;51.420;6.788;2022-12-10T05:38:40;102.03;;;34.00;;
41927;SDS011;27616;51.420;6.788;2022-12-10T05:41:11;96.53;;;32.53;;
41927;SDS011;27616;51.420;6.788;2022-12-10T05:43:38;85.07;;;30.67;;
41927;SDS011;27616;51.420;6.788;2022-12-10T05:46:05;83.93;;;28.90;;
41927;SDS011;27616;51.420;6.788;2022-12-10T05:48:33;91.47;;;30.83;;
41927;SDS011;27616;51.420;6.788;2022-12-10T05:51:09;91.23;;;31.83;;
41927;SDS011;27616;51.420;6.788;2022-12-10T05:53:39;84.23;;;30.80;;
41927;SDS011;27616;51.420;6.788;2022-12-10T05:56:06;84.50;;;31.97;;
41927;SDS011;27616;51.420;6.788;2022-12-10T05:58:41;81.47;;;30.47;;
41927;SDS011;27616;51.420;6.788;2022-12-10T06:01:09;82.93;;;29.33;;
41927;SDS011;27616;51.420;6.788;2022-12-10T06:03:37;81.85;;;30.17;;
41927;SDS011;27616;51.420;6.788;2022-12-10T06:06:03;84.03;;;29.70;;
41927;SDS011;27616;51.420;6.788;2022-12-10T06:08:30;86.53;;;31.60;;
41927;SDS011;27616;51.420;6.788;2022-12-10T06:11:00;85.67;;;31.10;;
41927;SDS011;27616;51.420;6.788;2022-12-10T06:13:26;84.60;;;31.30;;
41927;SDS011;27616;51.420;6.788;2022-12-10T06:15:52;90.63;;;32.97;;
41927;SDS011;27616;51.420;6.788;2022-12-10T06:18:18;83.60;;;30.90;;
41927;SDS011;27616;51.420;6.788;2022-12-10T06:20:43;77.73;;;30.13;;
41927;SDS011;27616;51.420;6.788;2022-12-10T06:23:09;82.40;;;31.80;;
41927;SDS011;27616;51.420;6.788;2022-12-10T06:25:37;82.20;;;30.93;;
41927;SDS011;27616;51.420;6.788;2022-12-10T06:28:04;80.40;;;30.10;;
41927;SDS011;27616;51.420;6.788;2022-12-10T06:30:30;80.60;;;29.67;;
41927;SDS011;27616;51.420;6.788;2022-12-10T06:32:56;74.77;;;29.17;;
41927;SDS011;27616;51.420;6.788;2022-12-10T06:35:22;83.33;;;30.40;;
41927;SDS011;27616;51.420;6.788;2022-12-10T06:37:48;82.67;;;31.23;;
41927;SDS011;27616;51.420;6.788;2022-12-10T06:40:16;83.43;;;30.93;;
41927;SDS011;27616;51.420;6.788;2022-12-10T06:42:42;81.93;;;30.60;;
41927;SDS011;27616;51.420;6.788;2022-12-10T06:45:08;88.57;;;30.23;;
41927;SDS011;27616;51.420;6.788;2022-12-10T06:47:34;92.53;;;31.03;;
41927;SDS011;27616;51.420;6.788;2022-12-10T06:50:00;83.50;;;31.03;;
41927;SDS011;27616;51.420;6.788;2022-12-10T06:52:26;77.67;;;30.60;;
41927;SDS011;27616;51.420;6.788;2022-12-10T06:54:51;85.80;;;30.57;;
41927;SDS011;27616;51.420;6.788;2022-12-10T06:57:19;80.80;;;30.73;;
41927;SDS011;27616;51.420;6.788;2022-12-10T06:59:45;81.40;;;30.53;;
41927;SDS011;27616;51.420;6.788;2022-12-10T07:02:11;85.70;;;32.33;;
41927;SDS011;27616;51.420;6.788;2022-12-10T07:04:36;85.67;;;30.97;;
41927;SDS011;27616;51.420;6.788;2022-12-10T07:07:02;81.47;;;29.80;;
41927;SDS011;27616;51.420;6.788;2022-12-10T07:09:28;83.10;;;30.77;;
41927;SDS011;27616;51.420;6.788;2022-12-10T07:11:53;81.43;;;30.47;;
41927;SDS011;27616;51.420;6.788;2022-12-10T07:14:20;79.97;;;30.30;;
41927;SDS011;27616;51.420;6.788;2022-12-10T07:16:46;77.67;;;30.33;;
41927;SDS011;27616;51.420;6.788;2022-12-10T07:19:11;86.33;;;32.67;;
41927;SDS011;27616;51.420;6.788;2022-12-10T07:21:39;82.73;;;31.23;;
41927;SDS011;27616;51.420;6.788;2022-12-10T07:24:07;79.97;;;31.07;;
41927;SDS011;27616;51.420;6.788;2022-12-10T07:26:38;85.93;;;31.33;;
41927;SDS011;27616;51.420;6.788;2022-12-10T07:29:05;85.63;;;32.53;;
41927;SDS011;27616;51.420;6.788;2022-12-10T07:31:33;85.27;;;32.77;;
41927;SDS011;27616;51.420;6.788;2022-12-10T07:33:59;86.33;;;33.00;;
41927;SDS011;27616;51.420;6.788;2022-12-10T07:36:25;83.67;;;32.90;;
41927;SDS011;27616;51.420;6.788;2022-12-10T07:38:52;87.90;;;33.07;;
41927;SDS011;27616;51.420;6.788;2022-12-10T07:41:19;88.87;;;34.30;;
41927;SDS011;27616;51.420;6.788;2022-12-10T07:43:46;92.37;;;34.67;;
41927;SDS011;27616;51.420;6.788;2022-12-10T07:46:17;94.00;;;34.80;;
41927;SDS011;27616;51.420;6.788;2022-12-10T07:48:46;100.43;;;35.83;;
41927;SDS011;27616;51.420;6.788;2022-12-10T07:51:13;98.17;;;34.93;;
41927;SDS011;27616;51.420;6.788;2022-12-10T07:53:39;98.67;;;35.17;;
41927;SDS011;27616;51.420;6.788;2022-12-10T07:56:06;100.87;;;36.77;;
41927;SDS011;27616;51.420;6.788;2022-12-10T07:58:32;109.20;;;34.73;;
41927;SDS011;27616;51.420;6.788;2022-12-10T08:00:58;101.30;;;36.63;;
41927;SDS011;27616;51.420;6.788;2022-12-10T08:03:30;98.27;;;34.60;;
41927;SDS011;27616;51.420;6.788;2022-12-10T08:06:03;108.83;;;35.30;;
41927;SDS011;27616;51.420;6.788;2022-12-10T08:08:30;101.37;;;35.33;;
41927;SDS011;27616;51.420;6.788;2022-12-10T08:10:58;106.03;;;36.20;;
41927;SDS011;27616;51.420;6.788;2022-12-10T08:13:26;94.70;;;32.88;;
41927;SDS011;27616;51.420;6.788;2022-12-10T08:15:52;103.70;;;35.47;;
41927;SDS011;27616;51.420;6.788;2022-12-10T08:18:18;105.77;;;36.50;;
41927;SDS011;27616;51.420;6.788;2022-12-10T08:20:45;97.87;;;34.67;;
41927;SDS011;27616;51.420;6.788;2022-12-10T08:23:10;99.20;;;35.37;;
41927;SDS011;27616;51.420;6.788;2022-12-10T08:25:36;96.60;;;34.17;;
41927;SDS011;27616;51.420;6.788;2022-12-10T08:28:02;100.57;;;35.07;;
41927;SDS011;27616;51.420;6.788;2022-12-10T08:30:29;98.43;;;33.40;;
41927;SDS011;27616;51.420;6.788;2022-12-10T08:32:55;93.87;;;32.77;;
41927;SDS011;27616;51.420;6.788;2022-12-10T08:35:21;100.70;;;34.33;;
41927;SDS011;27616;51.420;6.788;2022-12-10T08:37:46;97.73;;;33.63;;
41927;SDS011;27616;51.420;6.788;2022-12-10T08:40:12;94.63;;;33.63;;
41927;SDS011;27616;51.420;6.788;2022-12-10T08:42:38;91.00;;;34.37;;
41927;SDS011;27616;51.420;6.788;2022-12-10T08:45:04;90.67;;;33.63;;
41927;SDS011;27616;51.420;6.788;2022-12-10T08:47:30;93.90;;;32.93;;
41927;SDS011;27616;51.420;6.788;2022-12-10T08:49:56;95.47;;;33.83;;
41927;SDS011;27616;51.420;6.788;2022-12-10T08:52:22;85.57;;;32.20;;
41927;SDS011;27616;51.420;6.788;2022-12-10T08:54:48;98.23;;;35.10;;
41927;SDS011;27616;51.420;6.788;2022-12-10T08:57:13;97.30;;;34.73;;
41927;SDS011;27616;51.420;6.788;2022-12-10T08:59:39;91.47;;;33.70;;
41927;SDS011;27616;51.420;6.788;2022-12-10T09:02:05;89.70;;;31.30;;
41927;SDS011;27616;51.420;6.788;2022-12-10T09:04:32;93.27;;;33.30;;
41927;SDS011;27616;51.420;6.788;2022-12-10T09:06:58;97.87;;;33.67;;
41927;SDS011;27616;51.420;6.788;2022-12-10T09:09:24;96.07;;;32.47;;
41927;SDS011;27616;51.420;6.788;2022-12-10T09:11:49;88.87;;;32.33;;
41927;SDS011;27616;51.420;6.788;2022-12-10T09:14:15;88.17;;;30.93;;
41927;SDS011;27616;51.420;6.788;2022-12-10T09:16:41;85.47;;;31.70;;
41927;SDS011;27616;51.420;6.788;2022-12-10T09:19:07;92.87;;;31.77;;
41927;SDS011;27616;51.420;6.788;2022-12-10T09:21:34;89.53;;;32.43;;
41927;SDS011;27616;51.420;6.788;2022-12-10T09:24:00;92.20;;;33.37;;
41927;SDS011;27616;51.420;6.788;2022-12-10T09:26:26;85.87;;;31.63;;
41927;SDS011;27616;51.420;6.788;2022-12-10T09:28:52;87.47;;;31.87;;
41927;SDS011;27616;51.420;6.788;2022-12-10T09:31:19;95.10;;;32.57;;
41927;SDS011;27616;51.420;6.788;2022-12-10T09:33:46;94.30;;;31.77;;
41927;SDS011;27616;51.420;6.788;2022-12-10T09:36:13;103.00;;;34.73;;
41927;SDS011;27616;51.420;6.788;2022-12-10T09:38:40;102.00;;;33.90;;
41927;SDS011;27616;51.420;6.788;2022-12-10T09:46:57;97.43;;;32.23;;
41927;SDS011;27616;51.420;6.788;2022-12-10T09:49:38;96.17;;;32.10;;
41927;SDS011;27616;51.420;6.788;2022-12-10T09:52:14;76.05;;;25.88;;
41927;SDS011;27616;51.420;6.788;2022-12-10T09:54:44;90.80;;;30.40;;
41927;SDS011;27616;51.420;6.788;2022-12-10T09:57:18;106.27;;;34.83;;
41927;SDS011;27616;51.420;6.788;2022-12-10T09:59:49;100.07;;;31.60;;
41927;SDS011;27616;51.420;6.788;2022-12-10T10:02:27;101.80;;;34.90;;
41927;SDS011;27616;51.420;6.788;2022-12-10T10:05:00;107.13;;;34.93;;
41927;SDS011;27616;51.420;6.788;2022-12-10T10:07:43;91.40;;;32.80;;
41927;SDS011;27616;51.420;6.788;2022-12-10T10:10:34;104.37;;;36.20;;
41927;SDS011;27616;51.420;6.788;2022-12-10T10:15:53;102.03;;;33.67;;
41927;SDS011;27616;51.420;6.788;2022-12-10T10:20:55;98.90;;;34.43;;
41927;SDS011;27616;51.420;6.788;2022-12-10T10:23:21;130.37;;;46.93;;
41927;SDS011;27616;51.420;6.788;2022-12-10T10:25:47;111.13;;;37.77;;
41927;SDS011;27616;51.420;6.788;2022-12-10T10:28:16;99.13;;;32.67;;
41927;SDS011;27616;51.420;6.788;2022-12-10T10:30:45;90.93;;;32.80;;
41927;SDS011;27616;51.420;6.788;2022-12-10T10:33:11;100.00;;;33.17;;
41927;SDS011;27616;51.420;6.788;2022-12-10T10:35:46;91.97;;;32.77;;
41927;SDS011;27616;51.420;6.788;2022-12-10T10:40:46;89.13;;;32.73;;
41927;SDS011;27616;51.420;6.788;2022-12-10T10:43:23;76.03;;;28.70;;
41927;SDS011;27616;51.420;6.788;2022-12-10T10:48:39;71.67;;;27.40;;
41927;SDS011;27616;51.420;6.788;2022-12-10T10:51:14;61.97;;;25.87;;
41927;SDS011;27616;51.420;6.788;2022-12-10T10:53:46;64.77;;;24.63;;
41927;SDS011;27616;51.420;6.788;2022-12-10T10:56:23;58.43;;;22.93;;
41927;SDS011;27616;51.420;6.788;2022-12-10T10:59:04;63.13;;;25.67;;
41927;SDS011;27616;51.420;6.788;2022-12-10T11:01:46;52.43;;;21.17;;
41927;SDS011;27616;51.420;6.788;2022-12-10T11:04:25;55.73;;;21.40;;
41927;SDS011;27616;51.420;6.788;2022-12-10T11:06:56;52.45;;;23.08;;
41927;SDS011;27616;51.420;6.788;2022-12-10T11:09:28;51.30;;;21.53;;
41927;SDS011;27616;51.420;6.788;2022-12-10T11:12:03;46.88;;;21.00;;
41927;SDS011;27616;51.420;6.788;2022-12-10T11:14:32;48.97;;;21.10;;
41927;SDS011;27616;51.420;6.788;2022-12-10T11:19:35;47.10;;;21.00;;
41927;SDS011;27616;51.420;6.788;2022-12-10T11:22:24;52.77;;;23.03;;
41927;SDS011;27616;51.420;6.788;2022-12-10T11:24:52;58.33;;;23.10;;
41927;SDS011;27616;51.420;6.788;2022-12-10T11:27:22;58.70;;;24.30;;
41927;SDS011;27616;51.420;6.788;2022-12-10T11:30:26;60.33;;;24.90;;
41927;SDS011;27616;51.420;6.788;2022-12-10T11:35:51;52.73;;;22.70;;
41927;SDS011;27616;51.420;6.788;2022-12-10T11:40:56;51.27;;;23.00;;
41927;SDS011;27616;51.420;6.788;2022-12-10T11:52:03;56.30;;;24.83;;
41927;SDS011;27616;51.420;6.788;2022-12-10T12:00:15;52.67;;;22.27;;
41927;SDS011;27616;51.420;6.788;2022-12-10T12:03:03;51.60;;;24.03;;
41927;SDS011;27616;51.420;6.788;2022-12-10T12:16:47;50.13;;;21.17;;
41927;SDS011;27616;51.420;6.788;2022-12-10T12:19:25;52.53;;;22.77;;
41927;SDS011;27616;51.420;6.788;2022-12-10T12:21:58;52.00;;;23.80;;
41927;SDS011;27616;51.420;6.788;2022-12-10T12:24:34;58.10;;;24.63;;
41927;SDS011;27616;51.420;6.788;2022-12-10T12:27:14;64.73;;;26.37;;
41927;SDS011;27616;51.420;6.788;2022-12-10T12:30:06;59.57;;;25.53;;
41927;SDS011;27616;51.420;6.788;2022-12-10T12:41:05;52.90;;;22.30;;
41927;SDS011;27616;51.420;6.788;2022-12-10T12:43:44;56.67;;;23.30;;
41927;SDS011;27616;51.420;6.788;2022-12-10T12:46:19;53.20;;;22.80;;
41927;SDS011;27616;51.420;6.788;2022-12-10T12:54:51;45.03;;;19.30;;
41927;SDS011;27616;51.420;6.788;2022-12-10T13:00:17;49.83;;;21.40;;
41927;SDS011;27616;51.420;6.788;2022-12-10T13:05:26;52.80;;;23.37;;
41927;SDS011;27616;51.420;6.788;2022-12-10T13:13:39;52.27;;;21.47;;
41927;SDS011;27616;51.420;6.788;2022-12-10T13:37:33;46.17;;;20.77;;
41927;SDS011;27616;51.420;6.788;2022-12-10T13:40:02;49.70;;;21.17;;
41927;SDS011;27616;51.420;6.788;2022-12-10T13:42:33;47.50;;;20.33;;
41927;SDS011;27616;51.420;6.788;2022-12-10T13:47:51;44.47;;;21.23;;
41927;SDS011;27616;51.420;6.788;2022-12-10T13:50:35;51.73;;;23.37;;
41927;SDS011;27616;51.420;6.788;2022-12-10T14:04:01;52.27;;;23.00;;
41927;SDS011;27616;51.420;6.788;2022-12-10T14:06:39;49.70;;;20.93;;
41927;SDS011;27616;51.420;6.788;2022-12-10T14:09:17;51.83;;;23.20;;
41927;SDS011;27616;51.420;6.788;2022-12-10T14:14:34;50.40;;;22.77;;
41927;SDS011;27616;51.420;6.788;2022-12-10T14:17:08;54.57;;;23.30;;
41927;SDS011;27616;51.420;6.788;2022-12-10T14:19:38;57.30;;;24.43;;
41927;SDS011;27616;51.420;6.788;2022-12-10T14:22:05;56.57;;;25.33;;
41927;SDS011;27616;51.420;6.788;2022-12-10T14:24:34;56.70;;;24.97;;
41927;SDS011;27616;51.420;6.788;2022-12-10T14:27:11;60.70;;;25.90;;
41927;SDS011;27616;51.420;6.788;2022-12-10T14:29:36;62.40;;;26.43;;
41927;SDS011;27616;51.420;6.788;2022-12-10T14:32:02;57.07;;;25.63;;
41927;SDS011;27616;51.420;6.788;2022-12-10T14:34:28;53.67;;;24.93;;
41927;SDS011;27616;51.420;6.788;2022-12-10T14:36:58;60.90;;;26.40;;
41927;SDS011;27616;51.420;6.788;2022-12-10T14:39:29;76.17;;;25.57;;
41927;SDS011;27616;51.420;6.788;2022-12-10T14:42:02;56.03;;;24.23;;
41927;SDS011;27616;51.420;6.788;2022-12-10T14:44:29;58.17;;;25.97;;
41927;SDS011;27616;51.420;6.788;2022-12-10T14:47:06;57.93;;;25.67;;
41927;SDS011;27616;51.420;6.788;2022-12-10T14:49:39;62.80;;;26.40;;
41927;SDS011;27616;51.420;6.788;2022-12-10T14:54:37;60.87;;;25.23;;
41927;SDS011;27616;51.420;6.788;2022-12-10T14:57:04;64.80;;;27.20;;
41927;SDS011;27616;51.420;6.788;2022-12-10T15:02:17;60.00;;;26.43;;
41927;SDS011;27616;51.420;6.788;2022-12-10T15:04:50;59.90;;;25.43;;
41927;SDS011;27616;51.420;6.788;2022-12-10T15:07:19;58.70;;;25.83;;
41927;SDS011;27616;51.420;6.788;2022-12-10T15:09:48;62.63;;;26.37;;
41927;SDS011;27616;51.420;6.788;2022-12-10T15:15:07;57.43;;;24.03;;
41927;SDS011;27616;51.420;6.788;2022-12-10T15:17:39;60.00;;;24.30;;
41927;SDS011;27616;51.420;6.788;2022-12-10T15:20:09;60.27;;;24.80;;
41927;SDS011;27616;51.420;6.788;2022-12-10T15:22:45;58.50;;;24.43;;
41927;SDS011;27616;51.420;6.788;2022-12-10T15:25:22;59.23;;;25.83;;
41927;SDS011;27616;51.420;6.788;2022-12-10T15:27:58;80.28;;;31.67;;
41927;SDS011;27616;51.420;6.788;2022-12-10T15:30:32;64.83;;;26.47;;
41927;SDS011;27616;51.420;6.788;2022-12-10T15:33:00;57.20;;;24.30;;
41927;SDS011;27616;51.420;6.788;2022-12-10T15:35:26;61.50;;;25.87;;
41927;SDS011;27616;51.420;6.788;2022-12-10T15:37:52;70.47;;;26.27;;
41927;SDS011;27616;51.420;6.788;2022-12-10T15:40:28;65.97;;;26.13;;
41927;SDS011;27616;51.420;6.788;2022-12-10T15:42:56;70.27;;;26.20;;
41927;SDS011;27616;51.420;6.788;2022-12-10T15:45:38;64.90;;;24.83;;
41927;SDS011;27616;51.420;6.788;2022-12-10T15:48:09;68.45;;;25.65;;
41927;SDS011;27616;51.420;6.788;2022-12-10T15:50:37;66.47;;;24.90;;
41927;SDS011;27616;51.420;6.788;2022-12-10T15:53:07;64.60;;;24.83;;
41927;SDS011;27616;51.420;6.788;2022-12-10T15:55:37;63.13;;;25.40;;
41927;SDS011;27616;51.420;6.788;2022-12-10T15:58:07;66.87;;;26.57;;
41927;SDS011;27616;51.420;6.788;2022-12-10T16:00:37;64.00;;;24.73;;
41927;SDS011;27616;51.420;6.788;2022-12-10T16:03:08;72.87;;;27.40;;
41927;SDS011;27616;51.420;6.788;2022-12-10T16:05:39;66.73;;;26.30;;
41927;SDS011;27616;51.420;6.788;2022-12-10T16:10:43;62.83;;;23.67;;
41927;SDS011;27616;51.420;6.788;2022-12-10T16:13:12;73.27;;;27.70;;
41927;SDS011;27616;51.420;6.788;2022-12-10T16:15:45;68.03;;;25.63;;
41927;SDS011;27616;51.420;6.788;2022-12-10T16:18:14;70.90;;;26.03;;
41927;SDS011;27616;51.420;6.788;2022-12-10T16:20:40;67.23;;;24.40;;
41927;SDS011;27616;51.420;6.788;2022-12-10T16:23:07;74.10;;;26.33;;
41927;SDS011;27616;51.420;6.788;2022-12-10T16:25:33;69.47;;;25.77;;
41927;SDS011;27616;51.420;6.788;2022-12-10T16:28:02;76.07;;;25.85;;
41927;SDS011;27616;51.420;6.788;2022-12-10T16:30:36;82.00;;;31.27;;
41927;SDS011;27616;51.420;6.788;2022-12-10T16:33:05;82.43;;;28.40;;
41927;SDS011;27616;51.420;6.788;2022-12-10T16:35:31;71.93;;;25.30;;
41927;SDS011;27616;51.420;6.788;2022-12-10T16:37:57;79.07;;;26.90;;
41927;SDS011;27616;51.420;6.788;2022-12-10T16:40:24;70.07;;;24.87;;
41927;SDS011;27616;51.420;6.788;2022-12-10T16:42:52;74.50;;;24.60;;
41927;SDS011;27616;51.420;6.788;2022-12-10T16:45:19;72.83;;;26.67;;
41927;SDS011;27616;51.420;6.788;2022-12-10T16:47:49;72.07;;;25.13;;
41927;SDS011;27616;51.420;6.788;2022-12-10T16:50:15;73.10;;;25.67;;
41927;SDS011;27616;51.420;6.788;2022-12-10T16:52:42;76.30;;;26.77;;
41927;SDS011;27616;51.420;6.788;2022-12-10T16:55:12;77.43;;;25.77;;
41927;SDS011;27616;51.420;6.788;2022-12-10T16:57:43;75.73;;;25.80;;